Time;durP1;ratioP1;P1;durP2;ratioP2;P2;SDS_P1;SDS_P2;PMS_P1;PMS_P2;Temp;Humidity;BMP_temperature;BMP_pressure;BME280_temperature;BME280_humidity;BME280_pressure;Samples;Min_cycle;Max_cycle;Signal;HPM_P1;HPM_P2
2021/04/03 00:13:21;;;;;;;23.32;11.80;;;;;;;5.71;100.00;100183.66;10838842;81;98896;-73
2021/04/03 00:28:25;;;;;;;25.50;11.08;;;;;;;5.49;100.00;100183.02;10829986;81;98777;-73
2021/04/03 00:43:30;;;;;;;22.77;11.73;;;;;;;5.40;100.00;100184.47;10793965;81;98761;-73
2021/04/03 00:58:35;;;;;;;17.33;9.17;;;;;;;5.41;100.00;100183.55;10879182;80;98807;-72
2021/04/03 01:14:11;;;;;;;23.70;11.68;;;;;;;5.43;100.00;100186.03;10664300;83;98564;-73
2021/04/03 01:29:42;;;;;;;16.15;8.53;;;;;;;5.06;100.00;100180.23;10630447;83;98719;-73
2021/04/03 01:44:51;;;;;;;15.27;6.87;;;;;;;4.82;100.00;100171.83;10736096;81;98524;-73
2021/04/03 01:59:56;;;;;;;10.15;5.95;;;;;;;4.82;100.00;100171.83;10632339;81;98507;-74
2021/04/03 02:15:04;;;;;;;10.45;5.65;;;;;;;4.80;100.00;100180.20;10551553;82;98373;-73
2021/04/03 02:30:12;;;;;;;14.37;6.00;;;;;;;4.85;100.00;100185.56;10527848;82;98536;-73
2021/04/03 02:45:20;;;;;;;9.10;5.22;;;;;;;4.86;100.00;100180.27;10447658;81;98577;-73
2021/04/03 03:00:27;;;;;;;27.32;9.65;;;;;;;4.93;100.00;100182.80;10425691;83;98316;-74
2021/04/03 03:15:32;;;;;;;48.20;27.32;;;;;;;5.00;100.00;100180.63;10488066;84;98635;-73
2021/04/03 03:30:37;;;;;;;20.50;11.70;;;;;;;4.89;100.00;100190.92;10365625;84;98753;-73
2021/04/03 03:45:41;;;;;;;15.43;6.67;;;;;;;4.66;100.00;100195.38;10460380;85;98821;-73
2021/04/03 04:00:45;;;;;;;15.00;9.08;;;;;;;4.37;100.00;100199.86;10349940;85;98769;-73
2021/04/03 04:15:51;;;;;;;12.50;7.40;;;;;;;4.14;100.00;100212.53;10346422;85;98641;-73
2021/04/03 04:30:55;;;;;;;27.40;13.40;;;;;;;3.90;100.00;100217.94;10307361;85;98617;-73
2021/04/03 04:45:59;;;;;;;21.60;10.50;;;;;;;3.66;100.00;100217.20;10373635;85;98737;-73
2021/04/03 05:01:03;;;;;;;63.55;24.47;;;;;;;3.61;100.00;100233.50;10351103;85;98846;-73
2021/04/03 05:16:08;;;;;;;32.35;16.77;;;;;;;3.72;100.00;100243.23;10436078;84;98791;-73
2021/04/03 05:31:13;;;;;;;50.40;26.73;;;;;;;3.94;100.00;100263.06;10393410;84;98786;-73
2021/04/03 05:46:20;;;;;;;35.90;17.37;;;;;;;4.28;100.00;100261.47;10354814;84;98761;-74
2021/04/03 06:01:25;;;;;;;36.50;20.20;;;;;;;4.48;100.00;100269.31;10244868;85;98867;-75
2021/04/03 06:16:32;;;;;;;58.48;27.32;;;;;;;4.68;100.00;100301.83;10436186;85;98909;-75
2021/04/03 06:31:41;;;;;;;49.43;18.53;;;;;;;5.24;100.00;100324.28;10803178;81;98826;-74
2021/04/03 06:46:48;;;;;;;31.93;14.13;;;;;;;5.55;100.00;100324.89;10838768;80;99429;-69
2021/04/03 07:01:56;;;;;;;41.17;16.70;;;;;;;6.56;100.00;100328.03;10864278;80;98771;-76
2021/04/03 07:17:02;;;;;;;114.87;43.93;;;;;;;7.86;100.00;100341.63;10905447;80;98883;-73
2021/04/03 07:32:08;;;;;;;27.70;12.88;;;;;;;7.76;100.00;100365.02;10898772;80;98977;-75
2021/04/03 07:47:22;;;;;;;18.10;11.00;;;;;;;7.83;98.98;100377.13;10911535;80;98773;-74
2021/04/03 08:02:29;;;;;;;16.85;7.90;;;;;;;7.55;93.85;100392.25;10886096;80;98553;-75
2021/04/03 08:17:34;;;;;;;38.33;21.80;;;;;;;7.41;85.22;100406.78;10866679;80;97916;-77
2021/04/03 08:32:39;;;;;;;31.23;16.25;;;;;;;9.70;86.03;100438.92;10714270;80;98804;-78
2021/04/03 08:47:43;;;;;;;29.32;13.50;;;;;;;8.57;76.68;100439.50;10636716;82;98506;-78
2021/04/03 09:02:48;;;;;;;210.25;81.75;;;;;;;8.12;77.19;100460.33;10730624;82;98923;-78
2021/04/03 09:17:55;;;;;;;17.70;9.20;;;;;;;7.35;81.59;100477.23;10651847;82;99044;-78
2021/04/03 09:33:14;;;;;;;67.80;36.98;;;;;;;5.49;90.85;100518.22;10677151;81;98361;-78
2021/04/03 09:48:18;;;;;;;56.85;21.25;;;;;;;5.52;94.51;100518.50;10715975;82;98526;-77
2021/04/03 10:03:23;;;;;;;33.53;18.27;;;;;;;6.65;97.86;100509.87;10692303;82;98496;-77
2021/04/03 10:18:27;;;;;;;50.03;17.05;;;;;;;9.55;97.87;100502.06;10711283;82;98757;-81
2021/04/03 10:33:34;;;;;;;132.70;38.42;;;;;;;11.52;91.39;100515.84;10740258;81;98649;-81
2021/04/03 10:48:39;;;;;;;31.23;11.25;;;;;;;12.44;76.24;100509.35;10702409;81;99245;-80
2021/04/03 11:03:44;;;;;;;14.20;5.22;;;;;;;12.53;68.78;100511.63;10766550;80;98752;-79
2021/04/03 11:18:48;;;;;;;5.70;3.47;;;;;;;11.53;65.37;100509.62;10807146;81;98653;-81
2021/04/03 11:33:53;;;;;;;12.23;5.90;;;;;;;13.44;60.39;100499.13;10767470;81;98554;-83
2021/04/03 11:48:58;;;;;;;5.23;2.63;;;;;;;10.80;55.89;100520.66;10748376;81;98725;-83
2021/04/03 12:04:03;;;;;;;11.55;5.40;;;;;;;10.79;55.53;100517.67;10700775;81;98535;-80
2021/04/03 12:19:07;;;;;;;26.85;7.42;;;;;;;13.35;50.86;100510.02;10658471;81;98692;-80
2021/04/03 12:34:12;;;;;;;24.65;9.08;;;;;;;12.23;47.82;100523.50;10615188;81;98801;-82
2021/04/03 12:49:16;;;;;;;19.92;9.33;;;;;;;10.57;50.07;100532.27;10730062;82;98647;-81
2021/04/03 13:04:20;;;;;;;19.92;7.40;;;;;;;11.65;49.04;100532.17;10709815;81;98798;-81
2021/04/03 13:19:24;;;;;;;8.15;3.25;;;;;;;11.32;44.38;100531.55;10728719;82;98721;-80
2021/04/03 13:34:30;;;;;;;28.12;11.73;;;;;;;11.24;45.93;100555.03;10721754;81;98695;-81
2021/04/03 13:49:35;;;;;;;33.78;16.12;;;;;;;10.63;48.53;100564.55;10697344;82;98901;-81
2021/04/03 14:04:42;;;;;;;33.95;13.60;;;;;;;11.77;46.36;100578.41;10670015;83;99190;-81
2021/04/03 14:19:46;;;;;;;28.73;11.20;;;;;;;11.21;47.87;100583.70;10698117;82;98985;-82
2021/04/03 14:34:51;;;;;;;34.88;11.68;;;;;;;12.56;47.67;100575.80;10882789;80;98844;-81
2021/04/03 14:49:55;;;;;;;60.65;19.98;;;;;;;10.42;47.09;100590.28;10920931;80;98783;-82
2021/04/03 15:04:59;;;;;;;83.85;26.20;;;;;;;9.44;48.47;100589.84;10940416;80;98678;-82
2021/04/03 15:20:05;;;;;;;46.08;16.67;;;;;;;15.22;47.71;100605.58;10906087;80;98772;-81
2021/04/03 15:35:11;;;;;;;17.73;7.30;;;;;;;19.88;36.72;100603.51;10749411;80;98921;-79
2021/04/03 15:50:16;;;;;;;22.73;10.90;;;;;;;15.84;40.46;100613.27;10672587;82;98711;-81
2021/04/03 16:05:22;;;;;;;17.90;8.65;;;;;;;16.80;37.19;100627.70;10668950;82;98947;-82
2021/04/03 16:20:27;;;;;;;11.30;5.30;;;;;;;17.51;39.54;100641.61;10669168;82;98713;-84
2021/04/03 16:35:32;;;;;;;28.42;11.45;;;;;;;16.91;38.40;100637.66;10719906;80;98879;-80
2021/04/03 16:50:36;;;;;;;92.57;28.97;;;;;;;11.22;46.91;100655.45;10680814;82;99169;-83
2021/04/03 17:05:41;;;;;;;44.80;20.48;;;;;;;9.15;52.55;100661.81;10657540;82;99162;-77
2021/04/03 17:20:46;;;;;;;41.23;18.27;;;;;;;8.03;56.54;100704.83;10660301;82;98654;-81
2021/04/03 17:35:50;;;;;;;36.65;13.32;;;;;;;7.24;61.71;100715.92;10651877;82;98681;-78
2021/04/03 17:50:55;;;;;;;26.35;11.83;;;;;;;6.57;63.17;100741.57;10712881;82;99016;-82
2021/04/03 18:06:00;;;;;;;28.83;12.55;;;;;;;6.04;65.09;100757.04;10664158;82;98628;-81
2021/04/03 18:21:05;;;;;;;46.40;19.85;;;;;;;5.51;68.04;100765.35;10690353;82;98987;-82
2021/04/03 18:36:11;;;;;;;50.80;17.60;;;;;;;5.39;68.49;100785.13;10702657;81;99174;-81
2021/04/03 18:51:16;;;;;;;43.60;18.62;;;;;;;5.31;71.54;100800.35;10710317;82;98609;-80
2021/04/03 19:06:21;;;;;;;64.97;21.95;;;;;;;5.09;74.74;100798.96;10684308;82;99297;-81
2021/04/03 19:21:25;;;;;;;31.57;12.82;;;;;;;4.80;77.99;100817.51;10724372;81;99160;-81
2021/04/03 19:36:30;;;;;;;36.00;14.90;;;;;;;4.54;80.54;100828.02;10818720;81;98756;-77
2021/04/03 19:51:35;;;;;;;70.53;25.40;;;;;;;4.31;84.34;100842.62;10832225;80;98569;-78
2021/04/03 20:06:41;;;;;;;64.87;24.07;;;;;;;4.16;84.34;100846.87;10853540;80;98650;-78
2021/04/03 20:21:46;;;;;;;44.33;17.83;;;;;;;3.86;85.27;100853.19;10846883;81;98885;-83
2021/04/03 20:36:51;;;;;;;65.23;23.80;;;;;;;3.66;86.67;100858.92;10807427;80;98618;-74
2021/04/03 20:51:57;;;;;;;44.83;16.90;;;;;;;3.49;87.37;100857.63;10816766;80;98995;-83
2021/04/03 21:07:04;;;;;;;62.00;21.93;;;;;;;3.32;89.57;100864.46;10788094;80;98461;-85
2021/04/03 21:22:08;;;;;;;;;;;;;;;3.10;90.51;100875.05;10793675;80;98639;-83
2021/04/03 21:37:13;;;;;;;37.17;14.60;;;;;;;2.93;91.60;100874.55;10632941;80;83784;-83
2021/04/03 21:52:17;;;;;;;50.20;15.53;;;;;;;2.82;91.69;100892.33;10574098;83;98808;-81
2021/04/03 22:07:22;;;;;;;43.95;13.70;;;;;;;2.72;93.05;100895.81;10573774;83;98589;-82
2021/04/03 22:22:27;;;;;;;19.73;5.40;;;;;;;2.62;95.59;100907.49;10631436;82;98650;-82
2021/04/03 22:37:34;;;;;;;16.90;6.33;;;;;;;2.48;97.03;100908.95;10575002;82;98432;-82
2021/04/03 22:52:38;;;;;;;15.32;5.30;;;;;;;2.40;100.00;100908.89;10578763;82;98649;-82
2021/04/03 23:07:43;;;;;;;26.42;9.40;;;;;;;2.31;100.00;100907.09;10582122;83;98535;-83
2021/04/03 23:22:47;;;;;;;23.00;8.27;;;;;;;2.15;100.00;100909.52;10574153;83;98575;-83
2021/04/03 23:37:52;;;;;;;20.82;7.72;;;;;;;2.15;100.00;100909.52;10574805;82;98556;-83
